Terminal Aerodrome Forecast
Issued by NWS

Home | Current Version | Previous Version | Text Only | Print | Product List | Glossary On
Versions: 1 2 3 4 5 6 7 8 9 10 11 12
000
FTUS46 KLOX 311700
TAFWJF
TAF
KWJF 311737Z 3118/0118 VRB03KT P6SM SCT250
     FM312000 26010KT P6SM SCT250
     FM312200 25020G28KT P6SM SCT250
     FM010100 26014KT P6SM SCT250
     FM010700 VRB03KT P6SM SCT250=

USA.gov is the U.S. government's official web portal to all federal, state and local government web resources and services.